createdAt,value
2023-05-08T00:00:39.335Z,10.76
2023-05-08T00:01:41.520Z,10.74
2023-05-08T00:02:43.744Z,10.74
2023-05-08T00:03:46.070Z,10.80
2023-05-08T00:04:48.384Z,10.84
2023-05-08T00:05:50.788Z,10.76
2023-05-08T00:06:53.088Z,10.73
2023-05-08T00:08:01.201Z,10.78
2023-05-08T00:09:03.480Z,10.70
2023-05-08T00:10:06.831Z,10.82
2023-05-08T00:11:09.025Z,10.72
2023-05-08T00:12:11.150Z,10.73
2023-05-08T00:13:13.320Z,10.69
2023-05-08T00:14:15.523Z,10.62
2023-05-08T00:15:17.674Z,10.57
2023-05-08T00:16:19.883Z,10.63
2023-05-08T00:17:22.540Z,10.60
2023-05-08T00:18:24.938Z,10.65
2023-05-08T00:19:27.080Z,10.67
2023-05-08T00:20:29.292Z,10.68
2023-05-08T00:21:31.418Z,10.72
2023-05-08T00:22:33.569Z,10.71
2023-05-08T00:23:35.726Z,10.60
2023-05-08T00:24:37.890Z,10.63
2023-05-08T00:25:40.022Z,10.59
2023-05-08T00:26:44.294Z,10.56
2023-05-08T00:27:46.807Z,10.52
2023-05-08T00:28:48.916Z,10.48
2023-05-08T00:29:51.043Z,10.44
2023-05-08T00:30:53.818Z,10.47
2023-05-08T00:31:56.343Z,10.44
2023-05-08T00:32:58.644Z,10.46
2023-05-08T00:34:01.174Z,10.44
2023-05-08T00:35:03.495Z,10.40
2023-05-08T00:36:06.379Z,10.44
2023-05-08T00:37:08.847Z,10.40
2023-05-08T00:38:11.419Z,10.34
2023-05-08T00:39:13.664Z,10.41
2023-05-08T00:40:16.163Z,10.39
2023-05-08T00:41:18.385Z,10.32
2023-05-08T00:42:20.888Z,10.38
2023-05-08T00:43:28.133Z,10.25
2023-05-08T00:44:30.275Z,10.29
2023-05-08T00:45:36.603Z,10.45
2023-05-08T00:46:39.643Z,10.35
2023-05-08T00:47:42.462Z,10.29
2023-05-08T00:48:45.989Z,10.36
2023-05-08T00:49:48.789Z,10.29
2023-05-08T00:50:52.812Z,10.39
2023-05-08T00:51:56.016Z,10.39
2023-05-08T00:53:00.408Z,10.34
2023-05-08T00:54:03.549Z,10.30
2023-05-08T00:55:06.969Z,10.28
2023-05-08T00:56:15.279Z,10.33
2023-05-08T00:57:18.689Z,10.23
2023-05-08T00:58:21.791Z,10.15
2023-05-08T00:59:25.041Z,10.19
2023-05-08T01:00:27.472Z,10.08
2023-05-08T01:01:30.192Z,10.10
2023-05-08T01:02:32.949Z,10.08
2023-05-08T01:03:36.536Z,10.12
2023-05-08T01:04:40.232Z,10.10
2023-05-08T01:05:43.767Z,10.16
2023-05-08T01:06:45.937Z,10.02
2023-05-08T01:07:48.189Z,9.97
2023-05-08T01:08:51.158Z,9.94
2023-05-08T01:09:53.331Z,9.98
2023-05-08T01:11:10.808Z,10.17
2023-05-08T01:12:36.281Z,10.10
2023-05-08T01:13:57.015Z,10.27
2023-05-08T01:15:08.517Z,10.21
2023-05-08T01:16:37.249Z,10.13
2023-05-08T01:18:05.291Z,10.12
2023-05-08T01:19:31.279Z,10.12
2023-05-08T01:20:52.034Z,10.16
2023-05-08T01:22:04.273Z,10.05
2023-05-08T01:23:37.295Z,10.04
2023-05-08T01:25:07.411Z,10.12
2023-05-08T01:26:37.735Z,9.98
2023-05-08T01:27:58.408Z,10.03
2023-05-08T01:29:19.552Z,10.02
2023-05-08T01:30:27.630Z,9.70
2023-05-08T01:31:44.709Z,9.93
2023-05-08T01:32:56.156Z,9.87
2023-05-08T01:34:26.613Z,9.85
2023-05-08T01:35:45.327Z,9.84
2023-05-08T01:36:59.245Z,9.85
2023-05-08T01:38:10.754Z,9.76
2023-05-08T01:39:21.844Z,9.79
2023-05-08T01:41:01.802Z,9.85
2023-05-08T01:42:26.501Z,9.84
2023-05-08T01:44:04.149Z,9.78
2023-05-08T01:45:31.016Z,9.77
2023-05-08T01:46:34.412Z,9.63
2023-05-08T01:47:38.580Z,9.64
2023-05-08T01:48:54.830Z,9.74
2023-05-08T01:50:21.952Z,9.68
2023-05-08T01:51:27.876Z,9.58
2023-05-08T01:52:41.707Z,9.62
2023-05-08T01:53:49.658Z,9.51
2023-05-08T01:54:58.779Z,9.66
2023-05-08T01:56:08.115Z,9.67
2023-05-08T01:57:12.136Z,9.58
2023-05-08T01:58:14.973Z,9.54
2023-05-08T01:59:20.838Z,9.60
2023-05-08T02:00:25.486Z,9.58
2023-05-08T02:01:29.435Z,9.50
2023-05-08T02:02:34.396Z,9.55
2023-05-08T02:03:38.520Z,9.53
2023-05-08T02:04:44.303Z,9.64
2023-05-08T02:05:48.631Z,9.60
2023-05-08T02:06:52.185Z,9.64
2023-05-08T02:07:56.614Z,9.60
2023-05-08T02:09:01.770Z,9.61
2023-05-08T02:10:06.338Z,9.68
2023-05-08T02:11:11.599Z,9.73
2023-05-08T02:12:16.461Z,9.70
2023-05-08T02:13:22.018Z,9.73
2023-05-08T02:14:26.234Z,9.62
2023-05-08T02:15:29.467Z,9.62
2023-05-08T02:16:31.824Z,9.55
2023-05-08T02:17:37.897Z,9.65
2023-05-08T02:18:44.661Z,9.63
2023-05-08T02:19:48.129Z,9.60
2023-05-08T02:20:52.103Z,9.66
2023-05-08T02:21:55.409Z,9.62
2023-05-08T02:22:57.691Z,9.55
2023-05-08T02:24:01.864Z,9.58
2023-05-08T02:25:04.567Z,9.57
2023-05-08T02:26:09.494Z,9.59
2023-05-08T02:27:12.582Z,9.52
2023-05-08T02:28:18.942Z,9.65
2023-05-08T02:29:23.201Z,9.65
2023-05-08T02:30:26.370Z,9.66
2023-05-08T02:31:30.080Z,9.61
2023-05-08T02:32:33.180Z,9.56
2023-05-08T02:33:37.025Z,9.58
2023-05-08T02:34:45.208Z,9.55
2023-05-08T02:35:55.499Z,9.54
2023-05-08T02:36:59.731Z,9.41
2023-05-08T02:38:02.859Z,9.45
2023-05-08T02:39:08.288Z,9.50
2023-05-08T02:40:13.088Z,9.47
2023-05-08T02:41:18.325Z,9.54
2023-05-08T02:42:21.189Z,9.39
2023-05-08T02:43:24.064Z,9.40
2023-05-08T02:44:27.236Z,9.42
2023-05-08T02:45:48.007Z,9.53
2023-05-08T02:46:57.930Z,9.62
2023-05-08T02:48:09.237Z,9.50
2023-05-08T02:49:24.223Z,9.36
2023-05-08T02:50:38.366Z,9.47
2023-05-08T02:52:05.747Z,9.42
2023-05-08T02:53:12.588Z,9.48
2023-05-08T02:54:39.214Z,9.39
2023-05-08T02:55:52.973Z,9.48
2023-05-08T02:57:14.450Z,9.41
2023-05-08T02:58:22.549Z,9.33
2023-05-08T02:59:39.509Z,9.40
2023-05-08T03:00:47.522Z,9.30
2023-05-08T03:02:14.087Z,9.36
2023-05-08T03:03:39.969Z,9.34
2023-05-08T03:04:51.475Z,9.25
2023-05-08T03:05:59.880Z,9.29
2023-05-08T03:07:04.308Z,9.17
2023-05-08T03:08:14.471Z,9.27
2023-05-08T03:09:20.676Z,9.24
2023-05-08T03:10:29.539Z,9.17
2023-05-08T03:11:39.128Z,9.11
2023-05-08T03:12:46.068Z,9.08
2023-05-08T03:13:49.485Z,8.97
2023-05-08T03:16:02.925Z,9.04
2023-05-08T03:17:08.731Z,9.03
2023-05-08T03:18:20.285Z,9.11
2023-05-08T03:19:30.038Z,9.07
2023-05-08T03:20:37.334Z,8.99
2023-05-08T03:21:43.091Z,9.00
2023-05-08T03:22:48.296Z,8.92
2023-05-08T03:23:53.181Z,8.95
2023-05-08T03:24:56.595Z,8.94
2023-05-08T03:26:01.010Z,8.89
2023-05-08T03:27:04.619Z,8.80
2023-05-08T03:28:07.625Z,8.88
2023-05-08T03:29:13.048Z,8.92
2023-05-08T03:30:16.947Z,8.87
2023-05-08T03:31:25.122Z,8.89
2023-05-08T03:32:28.865Z,8.83
2023-05-08T03:33:32.695Z,8.84
2023-05-08T03:34:36.063Z,8.86
2023-05-08T03:35:39.438Z,8.83
2023-05-08T03:36:43.272Z,8.80
2023-05-08T03:37:45.785Z,8.78
2023-05-08T03:38:48.923Z,8.75
2023-05-08T03:39:52.005Z,8.75
2023-05-08T03:40:54.337Z,8.67
2023-05-08T03:41:56.911Z,8.75
2023-05-08T03:43:01.055Z,8.87
2023-05-08T03:44:03.667Z,8.76
2023-05-08T03:45:07.041Z,8.80
2023-05-08T03:46:10.387Z,8.79
2023-05-08T03:47:12.806Z,8.74
2023-05-08T03:48:16.442Z,8.74
2023-05-08T03:49:20.024Z,8.68
2023-05-08T03:50:22.763Z,8.75
2023-05-08T03:51:25.407Z,8.71
2023-05-08T03:52:27.604Z,8.69
2023-05-08T03:53:31.597Z,8.76
2023-05-08T03:54:33.829Z,8.75
2023-05-08T03:55:36.601Z,8.77
2023-05-08T03:56:40.973Z,8.72
2023-05-08T03:57:55.452Z,8.80
2023-05-08T03:59:07.377Z,8.87
2023-05-08T04:00:22.109Z,8.89
2023-05-08T04:01:44.238Z,8.93
2023-05-08T04:03:02.763Z,8.95
2023-05-08T04:04:16.367Z,8.84
2023-05-08T04:06:35.701Z,8.80
2023-05-08T04:07:53.588Z,8.81
2023-05-08T04:09:08.082Z,8.85
2023-05-08T04:10:21.697Z,8.83
2023-05-08T04:11:35.667Z,8.79
2023-05-08T04:12:40.894Z,8.78
2023-05-08T04:13:50.599Z,8.76
2023-05-08T04:15:16.010Z,8.74
2023-05-08T04:16:25.401Z,8.82
2023-05-08T04:17:45.028Z,8.89
2023-05-08T04:19:47.230Z,8.87
2023-05-08T04:20:53.713Z,8.78
2023-05-08T04:21:59.153Z,8.76
2023-05-08T04:23:03.822Z,8.71
2023-05-08T04:24:10.111Z,8.75
2023-05-08T04:25:15.306Z,8.69
2023-05-08T04:26:19.007Z,8.74
2023-05-08T04:27:24.272Z,8.69
2023-05-08T04:28:26.702Z,8.60
2023-05-08T04:29:30.072Z,8.69
2023-05-08T04:30:33.229Z,8.72
2023-05-08T04:31:37.282Z,8.79
2023-05-08T04:32:41.835Z,8.70
2023-05-08T04:33:45.893Z,8.68
2023-05-08T04:34:48.408Z,8.78
2023-05-08T04:35:51.406Z,8.83
2023-05-08T04:36:54.648Z,8.81
2023-05-08T04:37:59.341Z,8.88
2023-05-08T04:39:01.515Z,8.75
2023-05-08T04:40:07.510Z,8.77
2023-05-08T04:41:09.995Z,8.90
2023-05-08T04:42:12.408Z,8.84
2023-05-08T04:43:14.845Z,8.82
2023-05-08T04:44:17.352Z,8.87
2023-05-08T04:46:14.145Z,8.86
2023-05-08T04:47:16.484Z,8.93
2023-05-08T04:48:19.013Z,8.89
2023-05-08T04:49:21.241Z,8.90
2023-05-08T04:50:23.549Z,8.84
2023-05-08T04:51:26.293Z,8.92
2023-05-08T04:52:28.475Z,9.00
2023-05-08T04:53:30.726Z,8.97
2023-05-08T04:54:32.876Z,8.97
2023-05-08T04:55:35.047Z,9.01
2023-05-08T04:56:37.643Z,9.03
2023-05-08T04:57:40.030Z,8.89
2023-05-08T04:58:42.963Z,9.03
2023-05-08T04:59:45.799Z,9.05
2023-05-08T05:00:47.984Z,9.18
2023-05-08T05:01:50.533Z,9.19
2023-05-08T05:02:52.910Z,9.14
2023-05-08T05:03:56.182Z,9.13
2023-05-08T05:04:58.906Z,9.16
2023-05-08T05:06:01.881Z,9.20
2023-05-08T05:07:04.564Z,9.14
2023-05-08T05:08:07.248Z,9.13
2023-05-08T05:09:10.213Z,9.08
2023-05-08T05:10:12.474Z,9.05
2023-05-08T05:11:14.654Z,9.13
2023-05-08T05:12:16.973Z,9.17
2023-05-08T05:13:19.967Z,9.20
2023-05-08T05:14:22.259Z,9.20
2023-05-08T05:15:24.524Z,9.09
2023-05-08T05:16:27.410Z,9.13
2023-05-08T05:17:31.347Z,9.12
2023-05-08T05:18:34.073Z,9.10
2023-05-08T05:19:36.279Z,9.21
2023-05-08T05:20:38.833Z,9.23
2023-05-08T05:21:41.104Z,9.26
2023-05-08T05:22:43.504Z,9.27
2023-05-08T05:23:45.985Z,9.21
2023-05-08T05:24:48.129Z,9.27
2023-05-08T05:25:50.338Z,9.40
2023-05-08T05:26:52.557Z,9.44
2023-05-08T05:27:54.773Z,9.56
2023-05-08T05:28:57.120Z,9.58
2023-05-08T05:29:59.293Z,9.58
2023-05-08T05:31:02.242Z,9.71
2023-05-08T05:32:07.108Z,9.72
2023-05-08T05:33:09.476Z,9.73
2023-05-08T05:34:12.578Z,9.50
2023-05-08T05:35:15.446Z,9.43
2023-05-08T05:36:17.910Z,9.48
2023-05-08T05:37:20.108Z,9.61
2023-05-08T05:38:22.558Z,9.56
2023-05-08T05:39:24.785Z,9.63
2023-05-08T05:40:26.964Z,9.63
2023-05-08T05:41:29.196Z,9.78
2023-05-08T05:42:31.575Z,9.91
2023-05-08T05:43:34.190Z,9.93
2023-05-08T05:44:37.395Z,10.04
2023-05-08T05:45:40.134Z,10.02
2023-05-08T05:46:44.237Z,9.95
2023-05-08T05:47:50.049Z,10.00
2023-05-08T05:48:54.032Z,10.03
2023-05-08T05:49:57.761Z,10.20
2023-05-08T05:51:00.949Z,10.19
2023-05-08T05:52:03.334Z,10.28
2023-05-08T05:53:05.636Z,10.21
2023-05-08T05:54:07.820Z,10.27
2023-05-08T05:55:10.500Z,10.18
2023-05-08T05:56:12.712Z,10.28
2023-05-08T05:57:14.966Z,10.38
2023-05-08T05:58:17.812Z,10.47
2023-05-08T05:59:20.005Z,10.72
2023-05-08T06:00:22.409Z,10.84
2023-05-08T06:01:29.197Z,10.99
2023-05-08T06:02:33.939Z,11.01
2023-05-08T06:03:36.360Z,11.25
2023-05-08T06:04:39.040Z,11.43
2023-05-08T06:05:42.624Z,11.88
2023-05-08T06:06:44.800Z,12.40
2023-05-08T06:07:47.022Z,12.59
2023-05-08T06:08:49.183Z,13.11
2023-05-08T06:09:53.371Z,13.49
2023-05-08T06:10:55.564Z,13.72
2023-05-08T06:11:58.092Z,14.00
2023-05-08T06:13:00.592Z,14.31
2023-05-08T06:14:03.232Z,14.21
2023-05-08T06:15:06.223Z,14.31
2023-05-08T06:16:08.640Z,14.31
2023-05-08T06:17:11.043Z,14.47
2023-05-08T06:18:13.472Z,14.43
2023-05-08T06:19:15.824Z,14.45
2023-05-08T06:20:18.372Z,14.41
2023-05-08T06:21:20.526Z,13.95
2023-05-08T06:22:24.448Z,14.05
2023-05-08T06:23:27.088Z,14.00
2023-05-08T06:24:29.567Z,14.02
2023-05-08T06:25:31.882Z,13.93
2023-05-08T06:26:34.442Z,14.50
2023-05-08T06:27:37.074Z,14.94
2023-05-08T06:28:39.260Z,15.34
2023-05-08T06:29:41.411Z,15.79
2023-05-08T06:30:43.556Z,15.73
2023-05-08T06:31:45.831Z,15.51
2023-05-08T06:32:48.006Z,15.50
2023-05-08T06:33:50.147Z,15.77
2023-05-08T06:34:52.351Z,16.31
2023-05-08T06:35:54.495Z,16.73
2023-05-08T06:36:56.635Z,16.79
2023-05-08T06:37:58.746Z,16.66
2023-05-08T06:39:00.913Z,16.75
2023-05-08T06:40:12.039Z,16.87
2023-05-08T06:41:15.526Z,16.80
2023-05-08T06:42:17.766Z,16.96
2023-05-08T06:43:21.776Z,17.41
2023-05-08T06:44:23.944Z,17.21
2023-05-08T06:45:26.180Z,17.84
2023-05-08T06:46:29.909Z,18.20
2023-05-08T06:47:32.211Z,17.70
2023-05-08T06:48:34.563Z,18.07
2023-05-08T06:49:37.079Z,17.25
2023-05-08T06:50:39.627Z,17.02
2023-05-08T06:51:41.868Z,16.26
2023-05-08T06:52:44.086Z,17.21
2023-05-08T06:53:46.245Z,17.09
2023-05-08T06:54:48.418Z,17.62
2023-05-08T06:55:51.568Z,17.21
2023-05-08T06:56:56.715Z,16.46
2023-05-08T06:57:58.901Z,16.61
2023-05-08T06:59:08.261Z,16.79
2023-05-08T07:00:11.982Z,16.74
2023-05-08T07:01:15.074Z,17.30
2023-05-08T07:02:17.285Z,18.24
2023-05-08T07:03:19.434Z,17.80
2023-05-08T07:04:21.722Z,18.89
2023-05-08T07:05:24.041Z,19.22
2023-05-08T07:06:27.645Z,18.27
2023-05-08T07:07:29.798Z,18.09
2023-05-08T07:08:32.400Z,18.34
2023-05-08T07:09:34.645Z,18.59
2023-05-08T07:10:37.142Z,18.25
2023-05-08T07:11:39.320Z,18.40
2023-05-08T07:12:41.567Z,19.06
2023-05-08T07:13:46.042Z,19.65
2023-05-08T07:14:48.205Z,19.34
2023-05-08T07:15:50.476Z,19.85
2023-05-08T07:16:52.677Z,20.05
2023-05-08T07:17:54.917Z,19.74
2023-05-08T07:18:57.331Z,19.27
2023-05-08T07:19:59.460Z,19.35
2023-05-08T07:21:01.628Z,19.29
2023-05-08T07:22:04.867Z,19.38
2023-05-08T07:23:07.451Z,19.20
2023-05-08T07:24:09.715Z,19.34
2023-05-08T07:25:12.779Z,19.55
2023-05-08T07:26:15.117Z,19.52
2023-05-08T07:27:17.366Z,19.63
2023-05-08T07:28:19.544Z,19.89
2023-05-08T07:29:21.713Z,19.96
2023-05-08T07:30:24.000Z,20.19
2023-05-08T07:31:26.478Z,20.56
2023-05-08T07:32:30.514Z,20.70
2023-05-08T07:33:33.955Z,20.76
2023-05-08T07:34:36.207Z,21.40
2023-05-08T07:35:41.569Z,21.84
2023-05-08T07:36:43.890Z,21.70
2023-05-08T07:37:46.023Z,21.59
2023-05-08T07:38:48.159Z,20.86
2023-05-08T07:39:50.415Z,20.54
2023-05-08T07:40:57.091Z,20.43
2023-05-08T07:41:59.380Z,20.54
2023-05-08T07:43:01.567Z,20.35
2023-05-08T07:44:03.777Z,19.89
2023-05-08T07:45:07.006Z,20.22
2023-05-08T07:46:09.282Z,20.29
2023-05-08T07:47:11.553Z,20.95
2023-05-08T07:48:13.879Z,20.63
2023-05-08T07:49:16.060Z,20.48
2023-05-08T07:50:18.958Z,20.51
2023-05-08T07:51:21.096Z,20.24
2023-05-08T07:52:23.482Z,20.69
2023-05-08T07:53:25.616Z,21.23
2023-05-08T07:54:27.748Z,21.29
2023-05-08T07:55:29.903Z,20.97
2023-05-08T07:56:32.058Z,21.25
2023-05-08T07:57:41.807Z,21.41
2023-05-08T07:58:45.946Z,21.45
2023-05-08T07:59:48.090Z,20.65
2023-05-08T08:00:50.206Z,20.80
2023-05-08T08:01:52.574Z,19.66
2023-05-08T08:02:54.950Z,18.96
2023-05-08T08:03:57.448Z,18.12
2023-05-08T08:04:59.679Z,18.21
2023-05-08T08:06:01.849Z,18.31
2023-05-08T08:07:04.017Z,18.71
2023-05-08T08:08:06.211Z,18.83
2023-05-08T08:09:08.559Z,18.66
2023-05-08T08:10:10.798Z,19.05
2023-05-08T08:11:12.990Z,19.14
2023-05-08T08:12:15.639Z,19.86
2023-05-08T08:13:17.928Z,20.20
2023-05-08T08:14:20.140Z,20.69
2023-05-08T08:15:22.332Z,21.40
2023-05-08T08:16:24.551Z,20.12
2023-05-08T08:17:28.714Z,20.73
2023-05-08T08:18:35.678Z,20.82
2023-05-08T08:19:37.836Z,20.55
2023-05-08T08:20:40.290Z,19.26
2023-05-08T08:21:43.819Z,19.29
2023-05-08T08:22:46.049Z,18.49
2023-05-08T08:23:48.175Z,18.92
2023-05-08T08:24:51.900Z,19.09
2023-05-08T08:25:56.351Z,20.19
2023-05-08T08:26:58.600Z,20.77
2023-05-08T08:28:01.002Z,20.25
2023-05-08T08:29:03.184Z,19.43
2023-05-08T08:30:16.261Z,19.83
2023-05-08T08:31:20.116Z,20.16
2023-05-08T08:32:22.430Z,20.20
2023-05-08T08:33:24.640Z,21.22
2023-05-08T08:34:26.809Z,21.71
2023-05-08T08:35:30.170Z,22.21
2023-05-08T08:36:32.648Z,22.59
2023-05-08T08:37:34.873Z,22.93
2023-05-08T08:38:37.547Z,23.60
2023-05-08T08:39:39.760Z,23.10
2023-05-08T08:40:42.403Z,24.31
2023-05-08T08:41:44.628Z,25.33
2023-05-08T08:42:47.282Z,25.85
2023-05-08T08:43:49.463Z,25.80
2023-05-08T08:44:51.719Z,26.77
2023-05-08T08:45:53.911Z,26.25
2023-05-08T08:46:58.598Z,26.15
2023-05-08T08:48:02.340Z,25.82
2023-05-08T08:49:05.420Z,25.52
2023-05-08T08:50:12.049Z,25.66
2023-05-08T08:51:28.426Z,25.11
2023-05-08T08:52:48.785Z,24.28
2023-05-08T08:54:02.376Z,23.80
2023-05-08T08:55:08.112Z,23.53
2023-05-08T08:56:11.679Z,23.27
2023-05-08T08:57:15.054Z,23.11
2023-05-08T08:58:39.013Z,23.45
2023-05-08T08:59:43.217Z,22.95
2023-05-08T09:00:47.452Z,22.87
2023-05-08T09:01:56.871Z,23.16
2023-05-08T09:02:59.630Z,22.82
2023-05-08T09:04:02.778Z,22.14
2023-05-08T09:05:06.116Z,21.72
2023-05-08T09:06:08.790Z,21.74
2023-05-08T09:07:12.034Z,22.08
2023-05-08T09:08:14.275Z,22.34
2023-05-08T09:09:16.498Z,22.87
2023-05-08T09:10:18.752Z,23.73
2023-05-08T09:11:21.236Z,24.43
2023-05-08T09:12:23.445Z,24.48
2023-05-08T09:13:26.323Z,24.85
2023-05-08T09:14:28.762Z,25.31
2023-05-08T09:15:34.984Z,25.16
2023-05-08T09:16:37.762Z,24.98
2023-05-08T09:17:39.995Z,24.11
2023-05-08T09:18:42.203Z,24.51
2023-05-08T09:19:44.958Z,24.57
2023-05-08T09:21:46.314Z,24.70
2023-05-08T09:22:49.011Z,25.52
2023-05-08T09:23:59.586Z,24.94
2023-05-08T09:25:03.283Z,23.62
2023-05-08T09:26:05.634Z,24.21
2023-05-08T09:27:21.310Z,24.64
2023-05-08T09:28:25.373Z,24.40
2023-05-08T09:29:27.488Z,24.28
2023-05-08T09:30:29.655Z,24.14
2023-05-08T09:31:39.908Z,24.35
2023-05-08T09:32:44.332Z,25.05
2023-05-08T09:33:46.523Z,25.22
2023-05-08T09:34:52.777Z,24.15
2023-05-08T09:35:58.183Z,24.03
2023-05-08T09:37:06.266Z,24.75
2023-05-08T09:38:08.393Z,25.30
2023-05-08T09:39:12.639Z,25.77
2023-05-08T09:40:22.483Z,25.12
2023-05-08T09:41:24.797Z,24.41
2023-05-08T09:42:38.053Z,24.66
2023-05-08T09:43:40.384Z,24.26
2023-05-08T09:44:48.205Z,24.71
2023-05-08T09:45:50.418Z,24.28
2023-05-08T09:46:53.900Z,25.22
2023-05-08T09:47:56.186Z,25.45
2023-05-08T09:49:00.721Z,25.24
2023-05-08T09:50:06.992Z,25.12
2023-05-08T09:52:08.550Z,25.48
2023-05-08T09:53:10.924Z,25.64
2023-05-08T09:54:18.267Z,26.36
2023-05-08T09:55:20.503Z,26.31
2023-05-08T09:56:39.391Z,26.71
2023-05-08T09:57:56.960Z,26.13
2023-05-08T09:58:59.225Z,26.01
2023-05-08T10:00:09.896Z,25.21
2023-05-08T10:01:34.938Z,26.13
2023-05-08T10:02:38.426Z,25.94
2023-05-08T10:03:48.251Z,26.15
2023-05-08T10:04:50.631Z,25.95
2023-05-08T10:05:52.867Z,25.13
2023-05-08T10:06:58.907Z,25.18
2023-05-08T10:08:22.372Z,25.01
2023-05-08T10:09:26.094Z,25.75
2023-05-08T10:10:30.987Z,26.10
2023-05-08T10:11:33.247Z,26.11
2023-05-08T10:12:37.859Z,26.99
2023-05-08T10:13:40.123Z,26.40
2023-05-08T10:14:43.655Z,26.39
2023-05-08T10:15:52.880Z,26.66
2023-05-08T10:16:55.307Z,26.24
2023-05-08T10:18:08.782Z,26.84
2023-05-08T10:19:14.391Z,27.17
2023-05-08T10:20:21.340Z,27.41
2023-05-08T10:21:25.952Z,26.89
2023-05-08T10:22:29.549Z,27.49
2023-05-08T10:23:34.154Z,26.47
2023-05-08T10:24:41.353Z,25.73
2023-05-08T10:25:45.904Z,26.36
2023-05-08T10:27:09.719Z,27.74
2023-05-08T10:28:51.134Z,26.69
2023-05-08T10:30:01.544Z,27.21
2023-05-08T10:31:05.618Z,27.89
2023-05-08T10:32:10.525Z,28.30
2023-05-08T10:33:15.344Z,28.08
2023-05-08T10:34:22.350Z,28.88
2023-05-08T10:35:25.449Z,29.14
2023-05-08T10:36:30.918Z,28.98
2023-05-08T10:37:36.075Z,29.39
2023-05-08T10:38:39.570Z,28.41
2023-05-08T10:39:44.409Z,28.78
2023-05-08T10:40:48.122Z,28.99
2023-05-08T10:41:50.481Z,28.84
2023-05-08T10:44:12.504Z,29.75
2023-05-08T10:45:15.138Z,29.04
2023-05-08T10:46:40.834Z,28.11
2023-05-08T10:47:57.947Z,27.97
2023-05-08T10:49:26.685Z,27.48
2023-05-08T10:50:53.059Z,28.04
2023-05-08T10:52:18.675Z,27.05
2023-05-08T10:53:31.525Z,26.48
2023-05-08T10:54:39.803Z,27.24
2023-05-08T10:55:45.203Z,27.98
2023-05-08T10:56:48.914Z,27.49
2023-05-08T10:58:11.606Z,27.60
2023-05-08T10:59:21.251Z,27.74
2023-05-08T11:00:23.542Z,27.20
2023-05-08T11:01:26.509Z,25.99
2023-05-08T11:02:31.509Z,26.15
2023-05-08T11:03:42.924Z,27.38
2023-05-08T11:04:45.264Z,27.25
2023-05-08T11:05:49.362Z,27.57
2023-05-08T11:06:54.260Z,27.87
2023-05-08T11:07:57.998Z,27.24
2023-05-08T11:09:00.977Z,27.83
2023-05-08T11:10:14.116Z,28.89
2023-05-08T11:11:23.962Z,28.49
2023-05-08T11:12:27.880Z,28.42
2023-05-08T11:13:36.119Z,29.42
2023-05-08T11:14:42.479Z,29.61
2023-05-08T11:15:50.777Z,29.82
2023-05-08T11:17:02.142Z,29.89
2023-05-08T11:18:06.593Z,29.98
2023-05-08T11:19:19.766Z,29.82
2023-05-08T11:20:38.877Z,29.04
2023-05-08T11:22:19.299Z,28.76
2023-05-08T11:23:22.920Z,27.88
2023-05-08T11:24:35.998Z,27.91
2023-05-08T11:25:43.736Z,29.05
2023-05-08T11:26:49.060Z,28.10
2023-05-08T11:27:51.359Z,28.43
2023-05-08T11:28:53.523Z,29.07
2023-05-08T11:30:22.039Z,29.06
2023-05-08T11:31:24.682Z,28.89
2023-05-08T11:33:11.541Z,29.44
2023-05-08T11:34:41.323Z,29.36
2023-05-08T11:35:51.002Z,29.43
2023-05-08T11:37:02.530Z,29.64
2023-05-08T11:38:18.622Z,27.90
2023-05-08T11:39:20.838Z,27.07
2023-05-08T11:40:45.566Z,27.91
2023-05-08T11:41:48.006Z,27.24
2023-05-08T11:42:50.911Z,27.30
2023-05-08T11:44:07.765Z,28.02
2023-05-08T11:45:13.822Z,28.16
2023-05-08T11:46:19.365Z,28.83
2023-05-08T11:47:22.276Z,28.56
2023-05-08T11:48:24.860Z,28.50
2023-05-08T11:49:29.710Z,28.45
2023-05-08T11:50:36.079Z,28.76
2023-05-08T11:51:39.176Z,28.62
2023-05-08T11:52:43.006Z,28.75
2023-05-08T11:53:45.703Z,28.96
2023-05-08T11:54:47.930Z,29.13
2023-05-08T11:55:52.374Z,29.31
2023-05-08T11:56:57.540Z,29.15
2023-05-08T11:57:59.696Z,28.85
2023-05-08T11:59:06.314Z,28.12
2023-05-08T12:00:12.789Z,28.20
2023-05-08T12:01:21.001Z,26.68
2023-05-08T12:02:40.163Z,27.24
2023-05-08T12:03:42.602Z,27.31
2023-05-08T12:04:46.672Z,27.49
2023-05-08T12:05:50.450Z,27.52
2023-05-08T12:06:57.887Z,28.12
2023-05-08T12:08:00.111Z,27.64
2023-05-08T12:09:04.884Z,28.25
2023-05-08T12:10:07.773Z,27.83
2023-05-08T12:11:10.002Z,28.51
2023-05-08T12:12:12.213Z,28.13
2023-05-08T12:13:25.165Z,28.50
2023-05-08T12:14:27.540Z,28.44
2023-05-08T12:15:29.800Z,28.29
2023-05-08T12:16:35.614Z,27.21
2023-05-08T12:17:38.257Z,27.64
2023-05-08T12:18:42.128Z,28.08
2023-05-08T12:19:44.562Z,28.17
2023-05-08T12:21:50.259Z,27.97
2023-05-08T12:22:53.547Z,28.09
2023-05-08T12:23:58.671Z,27.10
2023-05-08T12:25:02.989Z,27.21
2023-05-08T12:26:05.161Z,27.35
2023-05-08T12:27:07.559Z,27.18
2023-05-08T12:28:10.418Z,27.32
2023-05-08T12:29:12.553Z,27.53
2023-05-08T12:30:15.312Z,27.47
2023-05-08T12:31:17.848Z,27.66
2023-05-08T12:32:20.343Z,27.24
2023-05-08T12:33:23.297Z,27.54
2023-05-08T12:34:25.611Z,27.35
2023-05-08T12:35:28.090Z,26.33
2023-05-08T12:36:34.193Z,26.53
2023-05-08T12:37:36.699Z,27.12
2023-05-08T12:42:16.902Z,28.24
2023-05-08T12:43:19.238Z,27.26
2023-05-08T12:44:26.028Z,27.59
2023-05-08T12:45:33.940Z,28.10
2023-05-08T12:46:36.217Z,27.72
2023-05-08T12:48:43.532Z,26.67
2023-05-08T12:50:44.259Z,26.61
2023-05-08T12:51:47.264Z,26.39
2023-05-08T12:52:51.579Z,26.41
2023-05-08T12:53:54.170Z,26.90
2023-05-08T12:54:56.306Z,26.89
2023-05-08T12:56:02.683Z,26.92
2023-05-08T12:57:12.447Z,26.19
2023-05-08T12:58:15.653Z,25.67
2023-05-08T12:59:28.863Z,26.14
2023-05-08T13:00:41.865Z,25.60
2023-05-08T13:01:50.600Z,25.55
2023-05-08T13:02:54.725Z,25.16
2023-05-08T13:04:02.026Z,25.35
2023-05-08T13:05:05.815Z,24.91
2023-05-08T13:06:20.674Z,25.04
2023-05-08T13:07:22.871Z,25.43
2023-05-08T13:08:33.014Z,25.87
2023-05-08T13:09:35.339Z,25.64
2023-05-08T13:10:57.166Z,25.82
2023-05-08T13:13:01.649Z,25.86
2023-05-08T13:14:03.984Z,25.88
2023-05-08T13:15:06.649Z,25.83
2023-05-08T13:16:09.223Z,24.90
2023-05-08T13:17:17.491Z,25.44
2023-05-08T13:18:21.702Z,25.25
2023-05-08T13:19:23.829Z,25.50
2023-05-08T13:20:26.228Z,25.26
2023-05-08T13:21:28.418Z,25.13
2023-05-08T13:23:54.069Z,24.72
2023-05-08T13:24:56.417Z,25.04
2023-05-08T13:25:58.583Z,25.34
2023-05-08T13:27:00.750Z,25.50
2023-05-08T13:28:04.124Z,25.40
2023-05-08T13:29:06.732Z,25.34
2023-05-08T13:30:09.867Z,25.24
2023-05-08T13:31:12.046Z,25.01
2023-05-08T13:32:14.628Z,24.95
2023-05-08T13:33:17.079Z,24.97
2023-05-08T13:35:24.995Z,24.86
2023-05-08T13:36:28.308Z,25.12
2023-05-08T13:37:30.758Z,25.38
2023-05-08T13:38:34.727Z,25.31
2023-05-08T13:39:37.774Z,25.25
2023-05-08T13:40:40.133Z,25.19
2023-05-08T13:41:42.302Z,24.99
2023-05-08T13:42:44.470Z,25.31
2023-05-08T13:43:47.689Z,25.63
2023-05-08T13:44:50.106Z,25.25
2023-05-08T13:45:52.524Z,25.46
2023-05-08T13:46:55.026Z,25.13
2023-05-08T13:49:08.316Z,24.90
2023-05-08T13:50:12.063Z,25.31
2023-05-08T13:51:14.393Z,25.46
2023-05-08T13:52:17.349Z,25.84
2023-05-08T13:53:19.482Z,25.78
2023-05-08T13:54:21.659Z,25.64
2023-05-08T13:55:23.949Z,25.35
2023-05-08T13:56:26.218Z,25.24
2023-05-08T13:57:28.545Z,25.02
2023-05-08T13:58:31.406Z,25.34
2023-05-08T13:59:34.489Z,25.42
2023-05-08T14:00:36.810Z,25.25
2023-05-08T14:01:39.350Z,25.50
2023-05-08T14:02:42.166Z,25.69
2023-05-08T14:03:44.504Z,25.34
2023-05-08T14:04:46.890Z,25.83
2023-05-08T14:05:49.113Z,26.23
2023-05-08T14:06:51.477Z,25.99
2023-05-08T14:07:53.627Z,26.18
2023-05-08T14:08:57.165Z,26.45
2023-05-08T14:09:59.780Z,26.31
2023-05-08T14:11:01.941Z,26.22
2023-05-08T14:12:04.279Z,25.95
2023-05-08T14:13:06.464Z,25.46
2023-05-08T14:14:08.681Z,25.24
2023-05-08T14:15:12.040Z,25.15
2023-05-08T14:16:16.214Z,25.49
2023-05-08T14:17:18.466Z,25.92
2023-05-08T14:18:20.624Z,25.97
2023-05-08T14:19:22.755Z,26.16
2023-05-08T14:20:24.992Z,25.64
2023-05-08T14:21:27.588Z,25.76
2023-05-08T14:22:29.741Z,25.59
2023-05-08T14:23:31.998Z,25.77
2023-05-08T14:24:34.134Z,25.67
2023-05-08T14:25:36.268Z,25.38
2023-05-08T14:26:38.965Z,25.81
2023-05-08T14:27:41.721Z,25.79
2023-05-08T14:28:43.992Z,25.86
2023-05-08T14:29:46.161Z,26.04
2023-05-08T14:30:48.307Z,25.38
2023-05-08T14:31:50.610Z,25.49